Time;durP1;ratioP1;P1;durP2;ratioP2;P2;SDS_P1;SDS_P2;PMS_P1;PMS_P2;Temp;Humidity;BMP_temperature;BMP_pressure;BME280_temperature;BME280_humidity;BME280_pressure;Samples;Min_cycle;Max_cycle;Signal;HPM_P1;HPM_P2
2023/06/25 00:01:18;;;;;;;12.95;8.38;;;;;;;;;;5034508;28;20104;-74
2023/06/25 00:03:45;;;;;;;14.45;8.80;;;;;;;;;;5015036;28;20080;-74
2023/06/25 00:06:12;;;;;;;14.77;8.93;;;;;;;;;;5027235;28;20022;-74
2023/06/25 00:08:38;;;;;;;11.48;8.50;;;;;;;;;;5034439;28;20027;-74
2023/06/25 00:11:04;;;;;;;11.35;8.23;;;;;;;;;;5034328;28;20109;-74
2023/06/25 00:13:30;;;;;;;15.13;9.25;;;;;;;;;;5034230;28;20029;-74
2023/06/25 00:15:56;;;;;;;13.25;8.70;;;;;;;;;;5034323;28;20084;-74
2023/06/25 00:18:25;;;;;;;11.95;8.73;;;;;;;;;;5034123;28;20025;-74
2023/06/25 00:20:50;;;;;;;12.05;8.43;;;;;;;;;;5034371;28;20075;-74
2023/06/25 00:23:16;;;;;;;13.02;9.07;;;;;;;;;;5033717;28;20030;-74
2023/06/25 00:25:42;;;;;;;12.45;8.98;;;;;;;;;;5034081;28;20041;-74
2023/06/25 00:28:08;;;;;;;13.10;9.43;;;;;;;;;;5034074;28;20025;-74
2023/06/25 00:30:35;;;;;;;14.95;10.13;;;;;;;;;;5034168;28;20465;-73
2023/06/25 00:33:02;;;;;;;13.45;9.20;;;;;;;;;;5033989;28;20068;-73
2023/06/25 00:35:29;;;;;;;12.88;9.63;;;;;;;;;;5032763;28;20022;-73
2023/06/25 00:37:56;;;;;;;14.98;9.85;;;;;;;;;;5034023;28;20021;-74
2023/06/25 00:40:22;;;;;;;14.65;10.13;;;;;;;;;;5034120;28;20025;-74
2023/06/25 00:42:58;;;;;;;16.38;10.68;;;;;;;;;;5032703;28;20120;-73
2023/06/25 00:45:26;;;;;;;14.90;10.23;;;;;;;;;;5034047;28;20479;-74
2023/06/25 00:47:53;;;;;;;16.80;10.38;;;;;;;;;;5033697;28;20022;-74
2023/06/25 00:50:25;;;;;;;13.88;9.70;;;;;;;;;;5033756;28;20026;-74
2023/06/25 00:52:51;;;;;;;16.42;10.32;;;;;;;;;;5033727;28;20056;-74
2023/06/25 00:55:18;;;;;;;14.90;10.23;;;;;;;;;;5032083;28;21550;-73
2023/06/25 00:57:44;;;;;;;17.98;10.75;;;;;;;;;;5033431;28;20445;-74
2023/06/25 01:00:14;;;;;;;15.65;10.50;;;;;;;;;;5033353;28;20100;-74
2023/06/25 01:02:46;;;;;;;14.75;10.77;;;;;;;;;;5033398;28;20014;-73
2023/06/25 01:05:22;;;;;;;12.98;10.23;;;;;;;;;;5016016;28;20109;-74
2023/06/25 01:07:48;;;;;;;16.70;11.27;;;;;;;;;;5013923;28;20022;-73
2023/06/25 01:10:15;;;;;;;14.80;11.10;;;;;;;;;;5013576;28;20546;-74
2023/06/25 01:12:42;;;;;;;16.98;11.52;;;;;;;;;;5013533;28;20026;-73
2023/06/25 01:15:11;;;;;;;14.68;10.85;;;;;;;;;;5013732;28;20018;-73
2023/06/25 01:17:39;;;;;;;15.15;11.57;;;;;;;;;;5013582;28;20109;-74
2023/06/25 01:20:07;;;;;;;15.38;11.35;;;;;;;;;;5013660;28;20021;-74
2023/06/25 01:22:33;;;;;;;16.10;11.18;;;;;;;;;;5013240;28;20026;-73
2023/06/25 01:24:59;;;;;;;15.30;11.20;;;;;;;;;;5013506;28;20118;-74
2023/06/25 01:27:26;;;;;;;16.65;10.88;;;;;;;;;;5013243;28;20026;-74
2023/06/25 01:29:52;;;;;;;16.80;10.27;;;;;;;;;;5020670;28;20035;-73
2023/06/25 01:32:18;;;;;;;16.92;11.32;;;;;;;;;;5032823;28;20109;-73
2023/06/25 01:34:44;;;;;;;19.08;11.68;;;;;;;;;;5032261;28;20079;-73
2023/06/25 01:37:17;;;;;;;16.85;11.02;;;;;;;;;;5032685;28;20372;-73
2023/06/25 01:39:43;;;;;;;18.60;11.85;;;;;;;;;;5032896;28;20029;-73
2023/06/25 01:42:09;;;;;;;20.52;11.95;;;;;;;;;;5032580;28;20060;-74
2023/06/25 01:44:37;;;;;;;18.85;11.90;;;;;;;;;;5032731;28;20060;-73
2023/06/25 01:47:03;;;;;;;17.55;11.75;;;;;;;;;;5032938;28;20120;-73
2023/06/25 01:49:29;;;;;;;17.65;11.32;;;;;;;;;;5032890;28;20021;-73
2023/06/25 01:51:55;;;;;;;18.00;12.05;;;;;;;;;;5032621;28;20468;-73
2023/06/25 01:54:21;;;;;;;16.33;11.23;;;;;;;;;;5032399;28;20377;-73
2023/06/25 01:56:47;;;;;;;17.20;11.95;;;;;;;;;;5032372;28;20491;-73
2023/06/25 01:59:13;;;;;;;20.67;11.80;;;;;;;;;;5032414;28;20026;-74
2023/06/25 02:01:40;;;;;;;19.95;12.55;;;;;;;;;;5032547;28;20025;-73
2023/06/25 02:04:06;;;;;;;19.73;12.10;;;;;;;;;;5032371;28;20392;-74
2023/06/25 02:06:32;;;;;;;20.15;12.25;;;;;;;;;;5032387;28;20187;-73
2023/06/25 02:08:58;;;;;;;19.42;12.02;;;;;;;;;;5032355;28;20559;-74
2023/06/25 02:11:24;;;;;;;18.15;11.60;;;;;;;;;;5032264;28;20021;-74
2023/06/25 02:13:50;;;;;;;20.77;12.52;;;;;;;;;;5032237;28;20063;-74
2023/06/25 02:16:16;;;;;;;21.75;13.52;;;;;;;;;;5024595;28;20049;-73
2023/06/25 02:18:42;;;;;;;19.05;13.18;;;;;;;;;;5021282;28;20470;-73
2023/06/25 02:21:08;;;;;;;18.40;12.05;;;;;;;;;;5026234;28;20029;-74
2023/06/25 02:23:34;;;;;;;19.95;13.50;;;;;;;;;;5032140;28;20029;-73
2023/06/25 02:26:00;;;;;;;18.70;13.20;;;;;;;;;;5018925;28;20457;-73
2023/06/25 02:28:26;;;;;;;21.17;12.48;;;;;;;;;;5032249;28;20087;-73
2023/06/25 02:30:52;;;;;;;18.17;12.77;;;;;;;;;;5032462;28;20494;-74
2023/06/25 02:33:18;;;;;;;21.13;13.10;;;;;;;;;;5032161;28;20117;-73
2023/06/25 02:35:44;;;;;;;18.92;12.10;;;;;;;;;;5032058;28;20480;-73
2023/06/25 02:38:10;;;;;;;18.63;12.45;;;;;;;;;;5032116;28;20033;-74
2023/06/25 02:40:36;;;;;;;25.27;13.45;;;;;;;;;;5032413;28;20537;-74
2023/06/25 02:43:02;;;;;;;17.55;12.60;;;;;;;;;;5031993;28;20033;-73
2023/06/25 02:45:28;;;;;;;21.10;13.57;;;;;;;;;;5033842;28;20392;-73
2023/06/25 02:47:54;;;;;;;22.52;13.65;;;;;;;;;;5035873;28;20029;-73
2023/06/25 02:50:20;;;;;;;22.27;13.07;;;;;;;;;;5031779;28;20038;-74
2023/06/25 02:52:46;;;;;;;20.17;13.35;;;;;;;;;;5014908;28;20061;-74
2023/06/25 02:55:12;;;;;;;23.15;14.32;;;;;;;;;;5033330;28;20034;-73
2023/06/25 02:57:38;;;;;;;21.75;13.40;;;;;;;;;;5035881;28;20040;-74
2023/06/25 03:00:05;;;;;;;18.10;12.38;;;;;;;;;;5035670;28;20025;-73
2023/06/25 03:02:31;;;;;;;19.42;12.77;;;;;;;;;;5034213;28;20025;-73
2023/06/25 03:04:57;;;;;;;20.45;13.10;;;;;;;;;;5035402;28;20034;-73
2023/06/25 03:07:23;;;;;;;20.90;13.57;;;;;;;;;;5035491;28;20017;-73
2023/06/25 03:09:49;;;;;;;21.73;13.50;;;;;;;;;;5035324;28;20348;-73
2023/06/25 03:12:15;;;;;;;20.25;13.38;;;;;;;;;;5035166;28;20037;-73
2023/06/25 03:14:42;;;;;;;19.80;13.07;;;;;;;;;;5033617;28;20025;-73
2023/06/25 03:17:08;;;;;;;22.33;13.00;;;;;;;;;;5035080;28;20017;-73
2023/06/25 03:19:34;;;;;;;19.95;12.40;;;;;;;;;;5035226;28;20484;-73
2023/06/25 03:22:00;;;;;;;21.23;13.77;;;;;;;;;;5035428;28;20022;-74
2023/06/25 03:24:26;;;;;;;24.42;13.15;;;;;;;;;;5035369;28;20071;-73
2023/06/25 03:26:52;;;;;;;22.98;13.02;;;;;;;;;;5035576;28;20033;-73
2023/06/25 03:29:18;;;;;;;20.88;12.80;;;;;;;;;;5035384;28;20427;-74
2023/06/25 03:31:44;;;;;;;19.17;12.52;;;;;;;;;;5035086;28;20036;-73
2023/06/25 03:34:10;;;;;;;20.60;13.15;;;;;;;;;;5032983;28;20029;-73
2023/06/25 03:36:36;;;;;;;21.27;13.00;;;;;;;;;;5017872;28;20025;-74
2023/06/25 03:39:03;;;;;;;17.98;12.40;;;;;;;;;;5033988;28;20057;-73
2023/06/25 03:41:29;;;;;;;19.65;13.60;;;;;;;;;;5034807;28;20422;-74
2023/06/25 03:43:55;;;;;;;18.75;12.85;;;;;;;;;;5028537;28;20048;-73
2023/06/25 03:46:21;;;;;;;21.23;12.95;;;;;;;;;;5030759;28;20152;-74
2023/06/25 03:48:47;;;;;;;20.90;13.13;;;;;;;;;;5034624;28;20101;-73
2023/06/25 03:51:13;;;;;;;19.33;13.10;;;;;;;;;;5034793;28;20104;-73
2023/06/25 03:53:39;;;;;;;19.80;12.60;;;;;;;;;;5033807;28;20120;-74
2023/06/25 03:56:05;;;;;;;23.83;13.18;;;;;;;;;;5034488;28;20026;-74
2023/06/25 03:58:31;;;;;;;20.55;13.23;;;;;;;;;;5034335;28;20088;-74
2023/06/25 04:00:57;;;;;;;20.13;13.05;;;;;;;;;;5034654;28;20030;-74
2023/06/25 04:03:25;;;;;;;21.35;13.98;;;;;;;;;;5031311;28;20338;-74
2023/06/25 04:05:51;;;;;;;20.67;13.27;;;;;;;;;;5023907;28;20056;-74
2023/06/25 04:08:17;;;;;;;19.05;13.00;;;;;;;;;;5033591;28;20061;-73
2023/06/25 04:10:43;;;;;;;20.75;12.95;;;;;;;;;;5031439;28;20030;-73
2023/06/25 04:13:16;;;;;;;19.48;13.05;;;;;;;;;;5024604;28;20037;-74
2023/06/25 04:15:43;;;;;;;19.10;12.68;;;;;;;;;;5034539;28;20088;-73
2023/06/25 04:18:09;;;;;;;20.38;12.73;;;;;;;;;;5034689;28;20025;-74
2023/06/25 04:20:35;;;;;;;18.73;12.77;;;;;;;;;;5034573;28;20465;-74
2023/06/25 04:23:01;;;;;;;19.73;12.88;;;;;;;;;;5034550;28;20421;-74
2023/06/25 04:25:27;;;;;;;20.60;12.95;;;;;;;;;;5017780;28;20030;-74
2023/06/25 04:27:54;;;;;;;18.73;12.23;;;;;;;;;;5014790;28;20084;-74
2023/06/25 04:30:20;;;;;;;16.75;12.15;;;;;;;;;;5014496;28;20041;-74
2023/06/25 04:32:49;;;;;;;16.60;10.93;;;;;;;;;;5014787;28;20028;-74
2023/06/25 04:35:16;;;;;;;19.67;12.02;;;;;;;;;;5015159;28;20033;-74
2023/06/25 04:37:42;;;;;;;15.10;11.45;;;;;;;;;;5015070;28;20119;-74
2023/06/25 04:40:08;;;;;;;19.73;11.25;;;;;;;;;;5018687;28;20456;-74
2023/06/25 04:42:34;;;;;;;16.90;11.15;;;;;;;;;;5034436;28;20022;-74
2023/06/25 04:45:00;;;;;;;15.68;11.15;;;;;;;;;;5033900;28;20095;-74
2023/06/25 04:47:26;;;;;;;17.27;10.90;;;;;;;;;;5034568;28;20422;-74
2023/06/25 04:49:52;;;;;;;15.88;11.15;;;;;;;;;;5034639;28;20049;-74
2023/06/25 04:52:19;;;;;;;15.60;11.02;;;;;;;;;;5034128;28;20491;-74
2023/06/25 04:54:48;;;;;;;14.65;11.63;;;;;;;;;;5033451;28;20060;-74
2023/06/25 04:57:14;;;;;;;15.77;11.93;;;;;;;;;;5034098;28;20026;-74
2023/06/25 04:59:40;;;;;;;15.13;10.55;;;;;;;;;;5034799;28;20029;-73
2023/06/25 05:02:06;;;;;;;15.82;10.82;;;;;;;;;;5034371;28;20025;-74
2023/06/25 05:04:32;;;;;;;13.00;9.98;;;;;;;;;;5034370;28;20029;-74
2023/06/25 05:06:58;;;;;;;13.55;10.90;;;;;;;;;;5033990;28;20033;-74
2023/06/25 05:09:24;;;;;;;14.23;10.45;;;;;;;;;;5032905;28;20041;-74
2023/06/25 05:11:50;;;;;;;12.80;10.48;;;;;;;;;;5033928;28;20074;-74
2023/06/25 05:14:17;;;;;;;12.13;9.48;;;;;;;;;;5033257;28;20036;-73
2023/06/25 05:16:43;;;;;;;12.05;9.02;;;;;;;;;;5033540;28;20131;-74
2023/06/25 05:19:09;;;;;;;14.25;9.50;;;;;;;;;;5033056;28;20025;-74
2023/06/25 05:21:35;;;;;;;14.90;10.13;;;;;;;;;;5033156;28;20104;-73
2023/06/25 05:24:01;;;;;;;11.05;9.38;;;;;;;;;;5033410;28;20085;-73
2023/06/25 05:26:27;;;;;;;12.65;10.25;;;;;;;;;;5033110;28;20028;-73
2023/06/25 05:28:54;;;;;;;12.70;10.18;;;;;;;;;;5032970;28;20456;-74
2023/06/25 05:31:20;;;;;;;13.50;10.60;;;;;;;;;;5032906;28;20021;-73
2023/06/25 05:33:46;;;;;;;13.25;11.40;;;;;;;;;;5033054;28;20032;-74
2023/06/25 05:36:16;;;;;;;13.05;10.45;;;;;;;;;;5033239;28;20022;-74
2023/06/25 05:38:42;;;;;;;13.73;10.30;;;;;;;;;;5033411;28;20096;-74
2023/06/25 05:41:08;;;;;;;12.73;9.30;;;;;;;;;;5032642;28;20113;-74
2023/06/25 05:43:34;;;;;;;13.05;10.48;;;;;;;;;;5013059;28;20453;-74
2023/06/25 05:46:01;;;;;;;14.85;10.90;;;;;;;;;;5025188;28;20040;-74
2023/06/25 05:48:27;;;;;;;13.55;10.60;;;;;;;;;;5028355;28;20522;-74
2023/06/25 05:50:53;;;;;;;11.50;9.90;;;;;;;;;;5012822;28;20099;-75
2023/06/25 05:53:19;;;;;;;11.35;10.15;;;;;;;;;;5012302;28;20485;-76
2023/06/25 05:55:45;;;;;;;11.88;10.25;;;;;;;;;;5025489;28;20040;-75
2023/06/25 05:58:11;;;;;;;13.25;10.20;;;;;;;;;;5032437;28;20030;-75
2023/06/25 06:00:37;;;;;;;10.23;9.05;;;;;;;;;;5032459;28;20369;-75
2023/06/25 06:03:03;;;;;;;12.55;10.10;;;;;;;;;;5032302;28;20048;-75
2023/06/25 06:05:29;;;;;;;10.95;9.48;;;;;;;;;;5032430;28;20071;-75
2023/06/25 06:07:55;;;;;;;12.82;10.05;;;;;;;;;;5032222;28;20053;-76
2023/06/25 06:10:21;;;;;;;13.88;9.73;;;;;;;;;;5032091;28;20091;-76
2023/06/25 06:12:47;;;;;;;12.13;9.75;;;;;;;;;;5032283;28;20072;-75
2023/06/25 06:15:13;;;;;;;11.80;10.60;;;;;;;;;;5032180;28;20022;-76
2023/06/25 06:17:39;;;;;;;10.23;9.13;;;;;;;;;;5032015;28;20481;-76
2023/06/25 06:20:05;;;;;;;11.23;9.65;;;;;;;;;;5033111;28;20464;-75
2023/06/25 06:22:31;;;;;;;10.43;9.00;;;;;;;;;;5035981;28;20029;-75
2023/06/25 06:24:57;;;;;;;11.63;9.30;;;;;;;;;;5023182;28;20047;-75
2023/06/25 06:27:23;;;;;;;10.50;9.32;;;;;;;;;;5016409;28;20048;-75
2023/06/25 06:29:49;;;;;;;10.93;9.82;;;;;;;;;;5015178;28;20041;-76
2023/06/25 06:32:15;;;;;;;11.02;9.20;;;;;;;;;;5031279;28;20551;-76
2023/06/25 06:34:41;;;;;;;11.52;10.32;;;;;;;;;;5016313;28;20109;-76
2023/06/25 06:37:07;;;;;;;10.30;9.18;;;;;;;;;;5016336;28;20036;-76
2023/06/25 06:39:34;;;;;;;10.73;9.05;;;;;;;;;;5016393;28;20369;-76
2023/06/25 06:42:00;;;;;;;13.55;9.98;;;;;;;;;;5035889;28;20030;-76
2023/06/25 06:44:26;;;;;;;10.02;8.63;;;;;;;;;;5027655;28;20032;-76
2023/06/25 06:46:52;;;;;;;10.98;9.77;;;;;;;;;;5035985;28;20053;-76
2023/06/25 06:49:19;;;;;;;9.77;8.85;;;;;;;;;;5035967;28;20048;-76
2023/06/25 06:51:45;;;;;;;10.77;9.55;;;;;;;;;;5036295;28;20029;-76
2023/06/25 06:54:11;;;;;;;10.93;9.73;;;;;;;;;;5035508;28;20058;-77
2023/06/25 06:56:38;;;;;;;10.90;8.88;;;;;;;;;;5035891;28;20461;-77
2023/06/25 06:59:05;;;;;;;12.05;10.20;;;;;;;;;;5035637;28;20427;-76
2023/06/25 07:01:31;;;;;;;11.27;10.02;;;;;;;;;;5035504;28;20495;-77
2023/06/25 07:03:57;;;;;;;11.10;9.82;;;;;;;;;;5035505;28;20029;-77
2023/06/25 07:06:24;;;;;;;11.15;9.57;;;;;;;;;;5035451;28;20487;-77
2023/06/25 07:08:50;;;;;;;11.40;9.32;;;;;;;;;;5035934;28;20033;-77
2023/06/25 07:11:18;;;;;;;9.40;8.50;;;;;;;;;;5035362;28;20022;-77
2023/06/25 07:13:44;;;;;;;10.10;9.10;;;;;;;;;;5035339;28;20021;-77
2023/06/25 07:16:10;;;;;;;11.50;10.50;;;;;;;;;;5035475;28;20053;-77
2023/06/25 07:18:37;;;;;;;11.27;9.50;;;;;;;;;;5035877;28;20468;-77
2023/06/25 07:21:03;;;;;;;13.55;9.50;;;;;;;;;;5035581;28;20021;-77
2023/06/25 07:23:29;;;;;;;10.35;9.40;;;;;;;;;;5036048;28;20060;-77
2023/06/25 07:25:55;;;;;;;10.30;9.18;;;;;;;;;;5035438;28;20112;-77
2023/06/25 07:28:21;;;;;;;11.50;10.38;;;;;;;;;;5034913;28;20100;-77
2023/06/25 07:30:47;;;;;;;10.60;9.60;;;;;;;;;;5034842;28;20453;-77
2023/06/25 07:33:13;;;;;;;10.98;9.88;;;;;;;;;;5034156;28;20033;-77
2023/06/25 07:35:39;;;;;;;10.45;9.45;;;;;;;;;;5035529;28;20022;-77
2023/06/25 07:38:05;;;;;;;10.25;9.35;;;;;;;;;;5035225;28;20087;-76
2023/06/25 07:40:34;;;;;;;10.15;9.20;;;;;;;;;;5034966;28;20042;-77
2023/06/25 07:43:00;;;;;;;9.90;8.98;;;;;;;;;;5034030;28;20033;-74
2023/06/25 07:45:26;;;;;;;10.20;9.20;;;;;;;;;;5034840;28;20029;-74
2023/06/25 07:47:52;;;;;;;10.13;8.55;;;;;;;;;;5034924;28;20026;-74
2023/06/25 07:50:18;;;;;;;9.95;9.00;;;;;;;;;;5034429;28;20523;-74
2023/06/25 07:52:44;;;;;;;10.00;9.00;;;;;;;;;;5033826;28;20029;-75
2023/06/25 07:55:10;;;;;;;9.60;8.80;;;;;;;;;;5034601;28;20068;-74
2023/06/25 07:57:36;;;;;;;10.70;9.80;;;;;;;;;;5034681;28;20475;-74
2023/06/25 08:00:03;;;;;;;9.05;8.25;;;;;;;;;;5034465;28;20504;-74
2023/06/25 08:02:29;;;;;;;9.77;8.85;;;;;;;;;;5033157;28;20075;-74
2023/06/25 08:04:56;;;;;;;9.00;8.20;;;;;;;;;;5034370;28;20029;-74
2023/06/25 08:07:22;;;;;;;8.05;7.35;;;;;;;;;;5032473;28;20079;-74
2023/06/25 08:09:48;;;;;;;8.50;7.70;;;;;;;;;;5045042;28;20426;-76
2023/06/25 08:12:14;;;;;;;8.25;7.47;;;;;;;;;;5031749;28;20045;-75
2023/06/25 08:14:40;;;;;;;8.77;7.85;;;;;;;;;;5020560;28;20018;-76
2023/06/25 08:17:07;;;;;;;8.43;7.68;;;;;;;;;;5016879;28;20018;-76
2023/06/25 08:19:33;;;;;;;8.13;7.20;;;;;;;;;;5023632;28;20021;-76
2023/06/25 08:21:59;;;;;;;9.02;8.13;;;;;;;;;;5029633;28;20030;-76
2023/06/25 08:24:25;;;;;;;8.93;8.13;;;;;;;;;;5034386;28;20424;-76
2023/06/25 08:26:51;;;;;;;8.73;6.43;;;;;;;;;;5034132;28;20779;-75
2023/06/25 08:29:17;;;;;;;7.97;6.93;;;;;;;;;;5034116;28;20025;-76
2023/06/25 08:31:43;;;;;;;6.95;6.30;;;;;;;;;;5033670;28;20377;-75
2023/06/25 08:34:10;;;;;;;7.35;6.70;;;;;;;;;;5033825;28;20483;-76
2023/06/25 08:36:36;;;;;;;7.63;6.93;;;;;;;;;;5026603;28;20030;-76
2023/06/25 08:39:02;;;;;;;7.45;6.75;;;;;;;;;;5034220;28;20101;-76
2023/06/25 08:41:29;;;;;;;8.02;6.20;;;;;;;;;;5033957;28;20055;-76
2023/06/25 08:43:55;;;;;;;6.50;5.80;;;;;;;;;;5024899;28;20117;-76
2023/06/25 08:46:23;;;;;;;7.63;6.13;;;;;;;;;;5013826;28;20034;-76
2023/06/25 08:48:50;;;;;;;6.63;6.03;;;;;;;;;;5014229;28;20026;-76
2023/06/25 08:51:18;;;;;;;7.18;6.57;;;;;;;;;;5021890;28;20507;-75
2023/06/25 08:53:44;;;;;;;5.65;5.15;;;;;;;;;;5023767;28;20057;-75
2023/06/25 08:56:11;;;;;;;5.53;5.03;;;;;;;;;;5025079;28;20021;-75
2023/06/25 08:58:37;;;;;;;5.60;5.15;;;;;;;;;;5033283;28;20026;-75
2023/06/25 09:01:03;;;;;;;5.45;4.95;;;;;;;;;;5033496;28;20350;-77
2023/06/25 09:03:30;;;;;;;7.38;4.72;;;;;;;;;;5030880;28;20391;-76
2023/06/25 09:05:57;;;;;;;5.68;5.15;;;;;;;;;;5033155;28;20092;-76
2023/06/25 09:08:24;;;;;;;5.65;4.97;;;;;;;;;;5034145;28;20668;-77
2023/06/25 09:10:54;;;;;;;4.90;4.50;;;;;;;;;;5024073;28;20095;-77
2023/06/25 09:13:21;;;;;;;5.43;4.93;;;;;;;;;;5033289;28;20667;-77
2023/06/25 09:15:47;;;;;;;5.65;4.47;;;;;;;;;;5014722;28;20135;-77
2023/06/25 09:18:13;;;;;;;5.05;4.40;;;;;;;;;;5013933;28;20052;-76
2023/06/25 09:20:46;;;;;;;5.72;4.60;;;;;;;;;;5032487;28;20029;-77
2023/06/25 09:23:18;;;;;;;5.05;4.03;;;;;;;;;;5033305;28;20123;-77
2023/06/25 09:25:45;;;;;;;4.53;4.05;;;;;;;;;;5031670;28;20064;-77
2023/06/25 09:28:11;;;;;;;4.93;4.30;;;;;;;;;;5024335;28;20022;-76
2023/06/25 09:30:38;;;;;;;4.45;4.05;;;;;;;;;;5032756;28;20025;-77
2023/06/25 09:33:05;;;;;;;5.23;4.70;;;;;;;;;;5032657;28;20132;-76
2023/06/25 09:35:31;;;;;;;4.60;4.20;;;;;;;;;;5024550;28;20025;-76
2023/06/25 09:37:57;;;;;;;5.93;4.43;;;;;;;;;;5019623;28;20105;-76
2023/06/25 09:40:23;;;;;;;5.00;4.60;;;;;;;;;;5025869;28;20097;-76
2023/06/25 09:42:52;;;;;;;5.07;4.28;;;;;;;;;;5028124;28;20052;-76
2023/06/25 09:45:20;;;;;;;4.38;3.97;;;;;;;;;;5022376;28;20037;-76
2023/06/25 09:47:46;;;;;;;5.00;3.92;;;;;;;;;;5032207;28;20512;-76
2023/06/25 09:50:15;;;;;;;5.57;4.38;;;;;;;;;;5020636;28;20086;-76
2023/06/25 09:52:42;;;;;;;4.82;4.40;;;;;;;;;;5030843;28;20393;-77
2023/06/25 09:55:10;;;;;;;4.80;4.30;;;;;;;;;;5030068;28;20048;-76
2023/06/25 09:57:36;;;;;;;4.53;4.13;;;;;;;;;;5025625;28;20025;-76
2023/06/25 10:00:04;;;;;;;4.30;3.90;;;;;;;;;;5023516;28;20097;-75
2023/06/25 10:02:30;;;;;;;5.00;4.50;;;;;;;;;;5032534;28;20373;-75
2023/06/25 10:04:57;;;;;;;5.20;4.80;;;;;;;;;;5031720;28;20108;-75
2023/06/25 10:07:24;;;;;;;5.22;3.92;;;;;;;;;;5030735;28;20116;-75
2023/06/25 10:09:56;;;;;;;6.63;4.95;;;;;;;;;;5032422;28;20101;-75
2023/06/25 10:12:22;;;;;;;4.75;4.28;;;;;;;;;;5019970;28;20049;-74
2023/06/25 10:14:50;;;;;;;5.40;4.97;;;;;;;;;;5030440;28;20026;-75
2023/06/25 10:17:16;;;;;;;5.28;4.47;;;;;;;;;;5013093;28;20105;-75
2023/06/25 10:20:01;;;;;;;5.00;4.60;;;;;;;;;;5013436;28;20080;-75
2023/06/25 10:22:28;;;;;;;6.10;5.10;;;;;;;;;;5021550;28;20068;-75
2023/06/25 10:24:55;;;;;;;5.28;4.78;;;;;;;;;;5017062;28;20395;-75
2023/06/25 10:27:21;;;;;;;6.07;5.47;;;;;;;;;;5031852;28;20044;-74
2023/06/25 10:29:48;;;;;;;5.18;4.45;;;;;;;;;;5032174;28;20053;-75
2023/06/25 10:32:14;;;;;;;9.75;4.88;;;;;;;;;;5017256;28;20030;-74
2023/06/25 10:34:40;;;;;;;5.13;4.55;;;;;;;;;;5012028;28;20085;-75
2023/06/25 10:37:07;;;;;;;4.82;4.35;;;;;;;;;;5025579;28;20369;-75
2023/06/25 10:39:39;;;;;;;5.35;4.65;;;;;;;;;;5021029;28;20014;-75
2023/06/25 10:42:05;;;;;;;4.50;4.10;;;;;;;;;;5028435;28;20080;-75
2023/06/25 10:44:32;;;;;;;5.30;4.80;;;;;;;;;;5014840;28;20017;-75
2023/06/25 10:47:11;;;;;;;4.97;4.38;;;;;;;;;;5027163;28;20025;-75
2023/06/25 10:49:37;;;;;;;4.85;4.38;;;;;;;;;;5019404;28;20026;-75
2023/06/25 10:52:04;;;;;;;6.45;4.53;;;;;;;;;;5031700;28;20033;-74
2023/06/25 10:54:33;;;;;;;4.72;4.28;;;;;;;;;;5030301;28;20136;-75
2023/06/25 10:57:06;;;;;;;5.40;4.40;;;;;;;;;;5029929;28;20095;-75
2023/06/25 10:59:33;;;;;;;4.75;4.32;;;;;;;;;;5016284;28;20052;-75
2023/06/25 11:02:18;;;;;;;4.93;4.03;;;;;;;;;;5015682;28;20099;-75
2023/06/25 11:04:54;;;;;;;4.72;3.83;;;;;;;;;;5024146;28;20029;-75
2023/06/25 11:07:21;;;;;;;4.88;4.35;;;;;;;;;;5028228;28;20025;-75
2023/06/25 11:09:53;;;;;;;4.57;3.92;;;;;;;;;;5029627;28;20022;-75
2023/06/25 11:12:20;;;;;;;5.03;4.00;;;;;;;;;;5035249;28;20104;-75
2023/06/25 11:14:46;;;;;;;4.90;4.40;;;;;;;;;;5022095;28;20088;-75
2023/06/25 11:17:15;;;;;;;5.55;4.20;;;;;;;;;;5035128;28;20033;-75
2023/06/25 11:19:41;;;;;;;5.00;4.22;;;;;;;;;;5035141;28;20056;-75
2023/06/25 11:22:08;;;;;;;7.30;4.47;;;;;;;;;;5035223;28;20026;-75
2023/06/25 11:24:34;;;;;;;4.68;3.95;;;;;;;;;;5035140;28;20458;-75
2023/06/25 11:27:00;;;;;;;5.97;4.32;;;;;;;;;;5023617;28;20053;-74
2023/06/25 11:29:42;;;;;;;4.55;4.10;;;;;;;;;;5028644;28;20026;-75
2023/06/25 11:32:15;;;;;;;5.78;4.40;;;;;;;;;;5015894;28;20025;-74
2023/06/25 11:34:47;;;;;;;6.18;4.50;;;;;;;;;;5034664;28;20522;-74
2023/06/25 11:37:14;;;;;;;6.57;3.72;;;;;;;;;;5032058;28;20396;-74
2023/06/25 11:39:46;;;;;;;6.32;4.30;;;;;;;;;;5016269;28;20122;-74
2023/06/25 11:42:13;;;;;;;5.00;4.00;;;;;;;;;;5028128;28;20025;-74
2023/06/25 11:44:39;;;;;;;6.75;4.20;;;;;;;;;;5026058;28;20025;-74
2023/06/25 11:47:05;;;;;;;4.30;3.90;;;;;;;;;;5034087;28;20033;-74
2023/06/25 11:49:31;;;;;;;4.90;4.40;;;;;;;;;;5033740;28;20425;-74
2023/06/25 11:52:00;;;;;;;4.18;3.78;;;;;;;;;;5022038;28;20064;-74
2023/06/25 11:54:26;;;;;;;;;;;;;;;;;;5033842;28;20065;-74
2023/06/25 11:56:52;;;;;;;6.20;4.38;;;;;;;;;;5034425;28;19908;-74
2023/06/25 11:59:18;;;;;;;6.47;4.10;;;;;;;;;;5033000;28;20022;-74
2023/06/25 12:01:44;;;;;;;5.15;4.10;;;;;;;;;;5022520;28;20025;-74
2023/06/25 12:04:10;;;;;;;5.03;3.95;;;;;;;;;;5029772;28;20038;-74
2023/06/25 12:06:36;;;;;;;4.85;3.95;;;;;;;;;;5015554;28;20025;-74
2023/06/25 12:09:03;;;;;;;4.18;3.78;;;;;;;;;;5026339;28;20056;-76
2023/06/25 12:11:29;;;;;;;4.93;4.32;;;;;;;;;;5026195;28;20024;-75
2023/06/25 12:13:55;;;;;;;4.38;3.97;;;;;;;;;;5023833;28;20030;-75
2023/06/25 12:16:21;;;;;;;4.55;4.15;;;;;;;;;;5031423;28;20025;-76
2023/06/25 12:18:47;;;;;;;4.90;3.80;;;;;;;;;;5032672;28;20105;-76
2023/06/25 12:21:13;;;;;;;4.43;3.80;;;;;;;;;;5025597;28;20101;-76
2023/06/25 12:23:39;;;;;;;4.60;4.13;;;;;;;;;;5028712;28;20037;-76
2023/06/25 12:26:05;;;;;;;5.05;3.97;;;;;;;;;;5033737;28;20467;-76
2023/06/25 12:28:31;;;;;;;4.95;3.90;;;;;;;;;;5033810;28;20108;-76
2023/06/25 12:30:57;;;;;;;4.13;3.72;;;;;;;;;;5022120;28;20465;-76
2023/06/25 12:33:24;;;;;;;5.47;3.92;;;;;;;;;;5021603;28;20112;-76
2023/06/25 12:35:50;;;;;;;3.60;3.30;;;;;;;;;;5025854;28;20065;-76
2023/06/25 12:38:16;;;;;;;4.10;3.08;;;;;;;;;;5027354;28;20029;-76
2023/06/25 12:40:42;;;;;;;3.80;3.30;;;;;;;;;;5033748;28;20423;-75
2023/06/25 12:43:08;;;;;;;4.20;3.20;;;;;;;;;;5022408;28;20477;-75
2023/06/25 12:45:34;;;;;;;4.28;3.30;;;;;;;;;;5014024;28;20076;-75
2023/06/25 12:48:00;;;;;;;3.53;3.20;;;;;;;;;;5029091;28;20061;-75
2023/06/25 12:50:26;;;;;;;5.32;3.67;;;;;;;;;;5023648;28;20108;-74
2023/06/25 12:52:52;;;;;;;5.32;3.35;;;;;;;;;;5016214;28;20116;-75
2023/06/25 12:55:18;;;;;;;3.58;3.20;;;;;;;;;;5032989;28;20049;-76
2023/06/25 12:57:43;;;;;;;3.55;3.25;;;;;;;;;;5030178;28;20030;-76
2023/06/25 13:00:10;;;;;;;3.78;3.40;;;;;;;;;;5023299;28;20057;-76
2023/06/25 13:02:36;;;;;;;3.90;3.53;;;;;;;;;;5033276;28;20072;-75
2023/06/25 13:05:02;;;;;;;4.90;3.70;;;;;;;;;;5022500;28;20083;-76
2023/06/25 13:07:28;;;;;;;3.60;3.28;;;;;;;;;;5017182;28;20100;-76
2023/06/25 13:09:54;;;;;;;5.43;3.67;;;;;;;;;;5033150;28;20232;-76
2023/06/25 13:12:20;;;;;;;4.35;3.33;;;;;;;;;;5016153;28;20522;-76
2023/06/25 13:14:46;;;;;;;4.60;4.10;;;;;;;;;;5025040;28;20033;-76
2023/06/25 13:17:12;;;;;;;4.10;3.70;;;;;;;;;;5027916;28;20101;-76
2023/06/25 13:19:39;;;;;;;4.32;3.92;;;;;;;;;;5013254;28;20384;-76
2023/06/25 13:22:05;;;;;;;5.15;3.90;;;;;;;;;;5032108;28;20017;-76
2023/06/25 13:24:31;;;;;;;4.15;3.63;;;;;;;;;;5032998;28;20036;-75
2023/06/25 13:27:01;;;;;;;4.45;3.70;;;;;;;;;;5032805;28;20391;-76
2023/06/25 13:29:28;;;;;;;5.18;4.25;;;;;;;;;;5032298;28;20029;-76
2023/06/25 13:31:54;;;;;;;4.20;3.80;;;;;;;;;;5021038;28;20025;-76
2023/06/25 13:34:20;;;;;;;4.72;4.22;;;;;;;;;;5031329;28;20033;-76
2023/06/25 13:36:46;;;;;;;4.80;3.85;;;;;;;;;;5021169;28;20108;-76
2023/06/25 13:39:12;;;;;;;4.53;4.03;;;;;;;;;;5026570;28;20058;-76
2023/06/25 13:41:38;;;;;;;4.97;4.30;;;;;;;;;;5012920;28;20109;-76
2023/06/25 13:44:04;;;;;;;4.57;3.97;;;;;;;;;;5017749;28;20040;-76
2023/06/25 13:46:30;;;;;;;4.30;3.90;;;;;;;;;;5012655;28;20026;-76
2023/06/25 13:48:56;;;;;;;4.93;4.45;;;;;;;;;;5022634;28;20385;-76
2023/06/25 13:51:22;;;;;;;4.15;3.75;;;;;;;;;;5015674;28;20445;-76
2023/06/25 13:53:48;;;;;;;5.88;4.43;;;;;;;;;;5026551;28;20057;-76
2023/06/25 13:56:14;;;;;;;4.70;4.22;;;;;;;;;;5032696;28;20033;-75
2023/06/25 13:58:40;;;;;;;4.57;4.18;;;;;;;;;;5033119;28;20037;-76
2023/06/25 14:01:06;;;;;;;5.63;4.00;;;;;;;;;;5032201;28;20096;-76
2023/06/25 14:03:33;;;;;;;5.18;4.32;;;;;;;;;;5014412;28;20026;-76
2023/06/25 14:05:59;;;;;;;4.50;4.10;;;;;;;;;;5024861;28;20503;-76
2023/06/25 14:08:25;;;;;;;6.53;4.43;;;;;;;;;;5026196;28;20021;-76
2023/06/25 14:10:51;;;;;;;4.38;3.97;;;;;;;;;;5012757;28;20377;-76
2023/06/25 14:13:18;;;;;;;4.40;3.90;;;;;;;;;;5026071;28;20036;-76
2023/06/25 14:15:44;;;;;;;6.75;4.22;;;;;;;;;;5025343;28;20033;-76
2023/06/25 14:18:10;;;;;;;4.78;3.97;;;;;;;;;;5027030;28;20026;-76
2023/06/25 14:20:37;;;;;;;4.80;4.00;;;;;;;;;;5026938;28;20484;-77
2023/06/25 14:23:03;;;;;;;4.32;3.92;;;;;;;;;;5030740;28;20025;-76
2023/06/25 14:25:29;;;;;;;6.28;4.63;;;;;;;;;;5031414;28;20059;-76
2023/06/25 14:27:55;;;;;;;4.60;3.97;;;;;;;;;;5018646;28;20104;-76